sensor_id;sensor_type;location;lat;lon;timestamp;temperature;humidity
13982;DHT22;7065;50.880;5.502;2023-04-03T00:01:09;1.00;99.90
13982;DHT22;7065;50.880;5.502;2023-04-03T00:03:36;1.00;99.90
13982;DHT22;7065;50.880;5.502;2023-04-03T00:06:03;0.90;99.90
13982;DHT22;7065;50.880;5.502;2023-04-03T00:08:29;0.90;99.90
13982;DHT22;7065;50.880;5.502;2023-04-03T00:10:56;0.90;99.90
13982;DHT22;7065;50.880;5.502;2023-04-03T00:13:23;0.90;99.90
13982;DHT22;7065;50.880;5.502;2023-04-03T00:15:48;0.80;99.90
13982;DHT22;7065;50.880;5.502;2023-04-03T00:18:14;0.80;99.90
13982;DHT22;7065;50.880;5.502;2023-04-03T00:20:40;0.80;99.90
13982;DHT22;7065;50.880;5.502;2023-04-03T00:23:06;0.70;99.90
13982;DHT22;7065;50.880;5.502;2023-04-03T00:25:32;0.70;99.90
13982;DHT22;7065;50.880;5.502;2023-04-03T00:27:58;0.70;99.90
13982;DHT22;7065;50.880;5.502;2023-04-03T00:30:24;0.60;99.90
13982;DHT22;7065;50.880;5.502;2023-04-03T00:32:51;0.60;99.90
13982;DHT22;7065;50.880;5.502;2023-04-03T00:35:19;0.60;99.90
13982;DHT22;7065;50.880;5.502;2023-04-03T00:37:45;0.50;99.90
13982;DHT22;7065;50.880;5.502;2023-04-03T00:40:12;0.50;99.90
13982;DHT22;7065;50.880;5.502;2023-04-03T00:42:40;0.50;99.90
13982;DHT22;7065;50.880;5.502;2023-04-03T00:47:41;0.40;99.90
13982;DHT22;7065;50.880;5.502;2023-04-03T00:50:07;0.40;99.90
13982;DHT22;7065;50.880;5.502;2023-04-03T00:52:33;0.40;99.90
13982;DHT22;7065;50.880;5.502;2023-04-03T00:55:04;0.30;99.90
13982;DHT22;7065;50.880;5.502;2023-04-03T00:57:31;0.30;99.90
13982;DHT22;7065;50.880;5.502;2023-04-03T01:00:03;0.30;99.90
13982;DHT22;7065;50.880;5.502;2023-04-03T01:02:30;0.30;99.90
13982;DHT22;7065;50.880;5.502;2023-04-03T01:04:55;0.30;99.90
13982;DHT22;7065;50.880;5.502;2023-04-03T01:07:26;0.30;99.90
13982;DHT22;7065;50.880;5.502;2023-04-03T01:09:57;0.30;99.90
13982;DHT22;7065;50.880;5.502;2023-04-03T01:12:24;0.20;99.90
13982;DHT22;7065;50.880;5.502;2023-04-03T01:14:53;0.30;99.90
13982;DHT22;7065;50.880;5.502;2023-04-03T01:17:52;0.30;99.90
13982;DHT22;7065;50.880;5.502;2023-04-03T01:25:27;0.20;99.90
13982;DHT22;7065;50.880;5.502;2023-04-03T01:27:53;0.20;99.90
13982;DHT22;7065;50.880;5.502;2023-04-03T01:30:21;0.20;99.90
13982;DHT22;7065;50.880;5.502;2023-04-03T01:32:47;0.10;99.90
13982;DHT22;7065;50.880;5.502;2023-04-03T01:35:13;0.10;99.90
13982;DHT22;7065;50.880;5.502;2023-04-03T01:37:39;0.10;99.90
13982;DHT22;7065;50.880;5.502;2023-04-03T01:40:05;0.00;99.90
13982;DHT22;7065;50.880;5.502;2023-04-03T01:42:31;0.00;99.90
13982;DHT22;7065;50.880;5.502;2023-04-03T01:44:57;0.00;99.90
13982;DHT22;7065;50.880;5.502;2023-04-03T01:47:22;-0.10;99.90
13982;DHT22;7065;50.880;5.502;2023-04-03T01:49:48;-0.20;99.90
13982;DHT22;7065;50.880;5.502;2023-04-03T01:52:14;-0.20;99.90
13982;DHT22;7065;50.880;5.502;2023-04-03T01:54:40;-0.20;99.90
13982;DHT22;7065;50.880;5.502;2023-04-03T01:57:06;-0.20;99.90
13982;DHT22;7065;50.880;5.502;2023-04-03T01:59:33;-0.20;99.90
13982;DHT22;7065;50.880;5.502;2023-04-03T02:01:59;-0.20;99.90
13982;DHT22;7065;50.880;5.502;2023-04-03T02:04:25;-0.20;99.90
13982;DHT22;7065;50.880;5.502;2023-04-03T02:06:50;-0.10;99.90
13982;DHT22;7065;50.880;5.502;2023-04-03T02:09:16;-0.10;99.90
13982;DHT22;7065;50.880;5.502;2023-04-03T02:11:42;-0.20;99.90
13982;DHT22;7065;50.880;5.502;2023-04-03T02:14:07;-0.20;99.90
13982;DHT22;7065;50.880;5.502;2023-04-03T02:16:33;-0.20;99.90
13982;DHT22;7065;50.880;5.502;2023-04-03T02:18:59;-0.20;99.90
13982;DHT22;7065;50.880;5.502;2023-04-03T02:21:25;-0.30;99.90
13982;DHT22;7065;50.880;5.502;2023-04-03T02:23:50;-0.30;99.90
13982;DHT22;7065;50.880;5.502;2023-04-03T02:26:17;-0.30;99.90
13982;DHT22;7065;50.880;5.502;2023-04-03T02:28:42;-0.30;99.90
13982;DHT22;7065;50.880;5.502;2023-04-03T02:31:09;-0.30;99.90
13982;DHT22;7065;50.880;5.502;2023-04-03T02:33:36;-0.40;99.90
13982;DHT22;7065;50.880;5.502;2023-04-03T02:36:04;-0.40;99.90
13982;DHT22;7065;50.880;5.502;2023-04-03T02:38:30;-0.40;99.90
13982;DHT22;7065;50.880;5.502;2023-04-03T02:41:07;-0.40;99.90
13982;DHT22;7065;50.880;5.502;2023-04-03T02:43:33;-0.50;99.90
13982;DHT22;7065;50.880;5.502;2023-04-03T02:46:00;-0.50;99.90
13982;DHT22;7065;50.880;5.502;2023-04-03T02:48:26;-0.50;99.90
13982;DHT22;7065;50.880;5.502;2023-04-03T02:50:52;-0.50;99.90
13982;DHT22;7065;50.880;5.502;2023-04-03T02:53:18;-0.50;99.90
13982;DHT22;7065;50.880;5.502;2023-04-03T02:55:44;-0.50;99.90
13982;DHT22;7065;50.880;5.502;2023-04-03T02:58:10;-0.50;99.90
13982;DHT22;7065;50.880;5.502;2023-04-03T03:00:36;-0.50;99.90
13982;DHT22;7065;50.880;5.502;2023-04-03T03:03:02;-0.50;99.90
13982;DHT22;7065;50.880;5.502;2023-04-03T03:05:28;-0.60;99.90
13982;DHT22;7065;50.880;5.502;2023-04-03T03:07:54;-0.60;99.90
13982;DHT22;7065;50.880;5.502;2023-04-03T03:10:21;-0.70;99.90
13982;DHT22;7065;50.880;5.502;2023-04-03T03:12:47;-0.70;99.90
13982;DHT22;7065;50.880;5.502;2023-04-03T03:15:13;-0.70;99.90
13982;DHT22;7065;50.880;5.502;2023-04-03T03:17:40;-0.70;99.90
13982;DHT22;7065;50.880;5.502;2023-04-03T03:20:07;-0.70;99.90
13982;DHT22;7065;50.880;5.502;2023-04-03T03:22:34;-0.70;99.90
13982;DHT22;7065;50.880;5.502;2023-04-03T03:25:00;-0.80;99.90
13982;DHT22;7065;50.880;5.502;2023-04-03T03:27:26;-0.70;99.90
13982;DHT22;7065;50.880;5.502;2023-04-03T03:29:52;-0.80;99.90
13982;DHT22;7065;50.880;5.502;2023-04-03T03:32:18;-0.70;99.90
13982;DHT22;7065;50.880;5.502;2023-04-03T03:34:43;-0.80;99.90
13982;DHT22;7065;50.880;5.502;2023-04-03T03:37:09;-0.80;99.90
13982;DHT22;7065;50.880;5.502;2023-04-03T03:39:35;-0.80;99.90
13982;DHT22;7065;50.880;5.502;2023-04-03T03:42:01;-0.90;99.90
13982;DHT22;7065;50.880;5.502;2023-04-03T03:44:26;-0.90;99.90
13982;DHT22;7065;50.880;5.502;2023-04-03T03:46:54;-0.90;99.90
13982;DHT22;7065;50.880;5.502;2023-04-03T03:49:20;-1.00;99.90
13982;DHT22;7065;50.880;5.502;2023-04-03T03:51:46;-1.00;99.90
13982;DHT22;7065;50.880;5.502;2023-04-03T03:54:13;-1.00;99.90
13982;DHT22;7065;50.880;5.502;2023-04-03T03:56:39;-1.10;99.90
13982;DHT22;7065;50.880;5.502;2023-04-03T03:59:05;-1.10;99.90
13982;DHT22;7065;50.880;5.502;2023-04-03T04:01:31;-1.10;99.90
13982;DHT22;7065;50.880;5.502;2023-04-03T04:03:57;-1.10;99.90
13982;DHT22;7065;50.880;5.502;2023-04-03T04:06:23;-1.10;99.90
13982;DHT22;7065;50.880;5.502;2023-04-03T04:08:49;-1.10;99.90
13982;DHT22;7065;50.880;5.502;2023-04-03T04:11:15;-1.10;99.90
13982;DHT22;7065;50.880;5.502;2023-04-03T04:13:41;-1.10;99.90
13982;DHT22;7065;50.880;5.502;2023-04-03T04:16:07;-1.10;99.90
13982;DHT22;7065;50.880;5.502;2023-04-03T04:18:33;-1.10;99.90
13982;DHT22;7065;50.880;5.502;2023-04-03T04:20:59;-1.10;99.90
13982;DHT22;7065;50.880;5.502;2023-04-03T04:23:25;-1.10;99.90
13982;DHT22;7065;50.880;5.502;2023-04-03T04:25:51;-1.00;99.90
13982;DHT22;7065;50.880;5.502;2023-04-03T04:28:17;-1.00;99.90
13982;DHT22;7065;50.880;5.502;2023-04-03T04:30:43;-0.90;99.90
13982;DHT22;7065;50.880;5.502;2023-04-03T04:33:10;-1.00;99.90
13982;DHT22;7065;50.880;5.502;2023-04-03T04:35:36;-1.00;99.90
13982;DHT22;7065;50.880;5.502;2023-04-03T04:38:02;-1.00;99.90
13982;DHT22;7065;50.880;5.502;2023-04-03T04:40:28;-1.00;99.90
13982;DHT22;7065;50.880;5.502;2023-04-03T04:42:54;-1.10;99.90
13982;DHT22;7065;50.880;5.502;2023-04-03T04:45:20;-1.10;99.90
13982;DHT22;7065;50.880;5.502;2023-04-03T04:47:46;-1.10;99.90
13982;DHT22;7065;50.880;5.502;2023-04-03T04:50:12;-1.10;99.90
13982;DHT22;7065;50.880;5.502;2023-04-03T04:52:38;-1.10;99.90
13982;DHT22;7065;50.880;5.502;2023-04-03T04:55:04;-1.10;99.90
13982;DHT22;7065;50.880;5.502;2023-04-03T04:57:30;-1.10;99.90
13982;DHT22;7065;50.880;5.502;2023-04-03T04:59:56;-1.20;99.90
13982;DHT22;7065;50.880;5.502;2023-04-03T05:02:22;-1.20;99.90
13982;DHT22;7065;50.880;5.502;2023-04-03T05:04:47;-1.30;99.90
13982;DHT22;7065;50.880;5.502;2023-04-03T05:07:15;-1.30;99.90
13982;DHT22;7065;50.880;5.502;2023-04-03T05:09:41;-1.30;99.90
13982;DHT22;7065;50.880;5.502;2023-04-03T05:12:08;-1.30;99.90
13982;DHT22;7065;50.880;5.502;2023-04-03T05:14:33;-1.30;99.90
13982;DHT22;7065;50.880;5.502;2023-04-03T05:16:59;-1.30;99.90
13982;DHT22;7065;50.880;5.502;2023-04-03T05:19:25;-1.30;99.90
13982;DHT22;7065;50.880;5.502;2023-04-03T05:21:50;-1.30;99.90
13982;DHT22;7065;50.880;5.502;2023-04-03T05:24:16;-1.30;99.90
13982;DHT22;7065;50.880;5.502;2023-04-03T05:26:43;-1.30;99.90
13982;DHT22;7065;50.880;5.502;2023-04-03T05:29:09;-1.30;99.90
13982;DHT22;7065;50.880;5.502;2023-04-03T05:31:34;-1.20;99.90
13982;DHT22;7065;50.880;5.502;2023-04-03T05:34:00;-1.20;99.90
13982;DHT22;7065;50.880;5.502;2023-04-03T05:36:26;-1.20;99.90
13982;DHT22;7065;50.880;5.502;2023-04-03T05:38:52;-1.20;99.90
13982;DHT22;7065;50.880;5.502;2023-04-03T05:41:18;-1.10;99.90
13982;DHT22;7065;50.880;5.502;2023-04-03T05:43:46;-1.10;99.90
13982;DHT22;7065;50.880;5.502;2023-04-03T05:46:13;-1.10;99.90
13982;DHT22;7065;50.880;5.502;2023-04-03T05:48:39;-1.00;99.90
13982;DHT22;7065;50.880;5.502;2023-04-03T05:51:06;-1.00;99.90
13982;DHT22;7065;50.880;5.502;2023-04-03T05:53:35;-1.00;99.90
13982;DHT22;7065;50.880;5.502;2023-04-03T05:56:03;-0.90;99.90
13982;DHT22;7065;50.880;5.502;2023-04-03T05:58:29;-0.90;99.90
13982;DHT22;7065;50.880;5.502;2023-04-03T06:00:54;-0.80;99.90
13982;DHT22;7065;50.880;5.502;2023-04-03T06:03:20;-0.70;99.90
13982;DHT22;7065;50.880;5.502;2023-04-03T06:05:46;-0.60;99.90
13982;DHT22;7065;50.880;5.502;2023-04-03T06:08:13;-0.60;99.90
13982;DHT22;7065;50.880;5.502;2023-04-03T06:10:40;-0.50;99.90
13982;DHT22;7065;50.880;5.502;2023-04-03T06:13:06;-0.30;99.90
13982;DHT22;7065;50.880;5.502;2023-04-03T06:15:31;-0.30;99.90
13982;DHT22;7065;50.880;5.502;2023-04-03T06:17:57;-0.10;99.90
13982;DHT22;7065;50.880;5.502;2023-04-03T06:20:23;0.00;99.90
13982;DHT22;7065;50.880;5.502;2023-04-03T06:22:49;0.00;99.90
13982;DHT22;7065;50.880;5.502;2023-04-03T06:25:16;0.10;99.90
13982;DHT22;7065;50.880;5.502;2023-04-03T06:27:44;0.20;99.90
13982;DHT22;7065;50.880;5.502;2023-04-03T06:30:11;0.30;99.90
13982;DHT22;7065;50.880;5.502;2023-04-03T06:32:37;0.40;99.90
13982;DHT22;7065;50.880;5.502;2023-04-03T06:35:04;0.40;99.90
13982;DHT22;7065;50.880;5.502;2023-04-03T06:37:30;0.40;99.90
13982;DHT22;7065;50.880;5.502;2023-04-03T06:39:56;0.50;99.90
13982;DHT22;7065;50.880;5.502;2023-04-03T06:42:23;0.60;99.90
13982;DHT22;7065;50.880;5.502;2023-04-03T06:44:48;0.60;99.90
13982;DHT22;7065;50.880;5.502;2023-04-03T06:47:16;0.80;99.90
13982;DHT22;7065;50.880;5.502;2023-04-03T06:49:42;0.80;99.90
13982;DHT22;7065;50.880;5.502;2023-04-03T06:52:09;0.90;99.90
13982;DHT22;7065;50.880;5.502;2023-04-03T06:54:35;0.90;99.90
13982;DHT22;7065;50.880;5.502;2023-04-03T06:57:01;1.00;99.90
13982;DHT22;7065;50.880;5.502;2023-04-03T06:59:27;1.10;99.90
13982;DHT22;7065;50.880;5.502;2023-04-03T07:01:53;1.20;99.90
13982;DHT22;7065;50.880;5.502;2023-04-03T07:04:19;1.30;99.90
13982;DHT22;7065;50.880;5.502;2023-04-03T07:06:46;1.30;99.90
13982;DHT22;7065;50.880;5.502;2023-04-03T07:09:13;1.40;99.90
13982;DHT22;7065;50.880;5.502;2023-04-03T07:11:38;1.50;99.90
13982;DHT22;7065;50.880;5.502;2023-04-03T07:14:05;1.60;99.90
13982;DHT22;7065;50.880;5.502;2023-04-03T07:16:33;1.60;99.90
13982;DHT22;7065;50.880;5.502;2023-04-03T07:18:59;1.70;99.90
13982;DHT22;7065;50.880;5.502;2023-04-03T07:21:25;1.80;99.90
13982;DHT22;7065;50.880;5.502;2023-04-03T07:23:51;1.90;99.90
13982;DHT22;7065;50.880;5.502;2023-04-03T07:26:17;2.00;99.90
13982;DHT22;7065;50.880;5.502;2023-04-03T07:28:43;2.00;99.90
13982;DHT22;7065;50.880;5.502;2023-04-03T07:31:13;2.10;99.90
13982;DHT22;7065;50.880;5.502;2023-04-03T07:33:39;2.10;99.90
13982;DHT22;7065;50.880;5.502;2023-04-03T07:36:06;2.20;99.90
13982;DHT22;7065;50.880;5.502;2023-04-03T07:38:33;2.30;99.90
13982;DHT22;7065;50.880;5.502;2023-04-03T07:40:59;2.40;99.90
13982;DHT22;7065;50.880;5.502;2023-04-03T07:43:25;2.50;99.90
13982;DHT22;7065;50.880;5.502;2023-04-03T07:45:52;2.60;99.90
13982;DHT22;7065;50.880;5.502;2023-04-03T07:48:21;2.60;99.90
13982;DHT22;7065;50.880;5.502;2023-04-03T07:50:47;2.70;99.90
13982;DHT22;7065;50.880;5.502;2023-04-03T07:53:13;2.80;99.90
13982;DHT22;7065;50.880;5.502;2023-04-03T07:55:40;2.90;99.90
13982;DHT22;7065;50.880;5.502;2023-04-03T07:58:10;3.10;99.90
13982;DHT22;7065;50.880;5.502;2023-04-03T08:00:36;3.00;99.90
13982;DHT22;7065;50.880;5.502;2023-04-03T08:03:02;3.10;99.90
13982;DHT22;7065;50.880;5.502;2023-04-03T08:05:28;3.20;99.90
13982;DHT22;7065;50.880;5.502;2023-04-03T08:07:54;3.20;99.90
13982;DHT22;7065;50.880;5.502;2023-04-03T08:10:20;3.40;99.90
13982;DHT22;7065;50.880;5.502;2023-04-03T08:12:46;3.50;99.90
13982;DHT22;7065;50.880;5.502;2023-04-03T08:15:12;3.60;99.90
13982;DHT22;7065;50.880;5.502;2023-04-03T08:17:38;3.60;99.90
13982;DHT22;7065;50.880;5.502;2023-04-03T08:20:05;3.70;99.90
13982;DHT22;7065;50.880;5.502;2023-04-03T08:22:32;3.90;99.90
13982;DHT22;7065;50.880;5.502;2023-04-03T08:24:58;3.90;99.90
13982;DHT22;7065;50.880;5.502;2023-04-03T08:27:24;3.90;99.90
13982;DHT22;7065;50.880;5.502;2023-04-03T08:29:50;3.90;99.90
13982;DHT22;7065;50.880;5.502;2023-04-03T08:32:16;4.00;99.90
13982;DHT22;7065;50.880;5.502;2023-04-03T08:34:44;4.00;99.90
13982;DHT22;7065;50.880;5.502;2023-04-03T08:37:10;3.90;99.90
13982;DHT22;7065;50.880;5.502;2023-04-03T08:39:36;4.00;99.90
13982;DHT22;7065;50.880;5.502;2023-04-03T08:42:10;4.00;99.90
13982;DHT22;7065;50.880;5.502;2023-04-03T08:44:52;4.10;99.90
13982;DHT22;7065;50.880;5.502;2023-04-03T08:49:56;4.30;99.90
13982;DHT22;7065;50.880;5.502;2023-04-03T08:52:47;4.50;99.90
13982;DHT22;7065;50.880;5.502;2023-04-03T08:55:47;4.50;99.90
13982;DHT22;7065;50.880;5.502;2023-04-03T08:58:23;4.70;99.90
13982;DHT22;7065;50.880;5.502;2023-04-03T09:01:02;4.80;99.90
13982;DHT22;7065;50.880;5.502;2023-04-03T09:03:31;4.80;99.90
13982;DHT22;7065;50.880;5.502;2023-04-03T09:06:07;4.90;99.90
13982;DHT22;7065;50.880;5.502;2023-04-03T09:08:50;4.90;99.90
13982;DHT22;7065;50.880;5.502;2023-04-03T09:11:24;4.90;99.90
13982;DHT22;7065;50.880;5.502;2023-04-03T09:16:43;5.00;99.90
13982;DHT22;7065;50.880;5.502;2023-04-03T09:22:13;5.20;99.90
13982;DHT22;7065;50.880;5.502;2023-04-03T09:24:43;5.10;99.90
13982;DHT22;7065;50.880;5.502;2023-04-03T09:27:10;5.20;99.90
13982;DHT22;7065;50.880;5.502;2023-04-03T09:29:40;5.30;99.90
13982;DHT22;7065;50.880;5.502;2023-04-03T09:32:21;5.40;99.90
13982;DHT22;7065;50.880;5.502;2023-04-03T09:34:51;5.50;99.90
13982;DHT22;7065;50.880;5.502;2023-04-03T09:40:05;5.50;99.90
13982;DHT22;7065;50.880;5.502;2023-04-03T09:42:32;5.60;99.90
13982;DHT22;7065;50.880;5.502;2023-04-03T09:47:33;5.70;99.90
13982;DHT22;7065;50.880;5.502;2023-04-03T09:50:20;5.60;99.90
13982;DHT22;7065;50.880;5.502;2023-04-03T09:52:48;5.70;99.90
13982;DHT22;7065;50.880;5.502;2023-04-03T09:55:33;5.80;99.90
13982;DHT22;7065;50.880;5.502;2023-04-03T09:58:05;5.80;99.90
13982;DHT22;7065;50.880;5.502;2023-04-03T10:00:55;5.90;99.90
13982;DHT22;7065;50.880;5.502;2023-04-03T10:03:33;5.90;99.90
13982;DHT22;7065;50.880;5.502;2023-04-03T10:06:02;6.00;99.90
13982;DHT22;7065;50.880;5.502;2023-04-03T10:08:33;6.10;99.90
13982;DHT22;7065;50.880;5.502;2023-04-03T10:11:16;6.10;99.90
13982;DHT22;7065;50.880;5.502;2023-04-03T10:13:56;6.20;99.90
13982;DHT22;7065;50.880;5.502;2023-04-03T10:16:41;6.30;99.90
13982;DHT22;7065;50.880;5.502;2023-04-03T10:21:50;6.40;99.90
13982;DHT22;7065;50.880;5.502;2023-04-03T10:27:29;6.50;99.90
13982;DHT22;7065;50.880;5.502;2023-04-03T10:33:20;6.60;99.90
13982;DHT22;7065;50.880;5.502;2023-04-03T10:41:39;6.80;99.90
13982;DHT22;7065;50.880;5.502;2023-04-03T10:44:20;6.80;99.90
13982;DHT22;7065;50.880;5.502;2023-04-03T10:46:59;6.90;99.90
13982;DHT22;7065;50.880;5.502;2023-04-03T10:49:31;7.00;99.90
13982;DHT22;7065;50.880;5.502;2023-04-03T10:55:35;7.00;99.90
13982;DHT22;7065;50.880;5.502;2023-04-03T10:58:03;7.10;99.90
13982;DHT22;7065;50.880;5.502;2023-04-03T11:00:40;7.20;99.90
13982;DHT22;7065;50.880;5.502;2023-04-03T11:05:47;7.20;99.90
13982;DHT22;7065;50.880;5.502;2023-04-03T11:10:53;7.40;99.90
13982;DHT22;7065;50.880;5.502;2023-04-03T11:13:33;7.40;99.90
13982;DHT22;7065;50.880;5.502;2023-04-03T11:16:00;7.40;99.90
13982;DHT22;7065;50.880;5.502;2023-04-03T11:18:37;7.40;99.90
13982;DHT22;7065;50.880;5.502;2023-04-03T11:21:11;7.40;99.90
13982;DHT22;7065;50.880;5.502;2023-04-03T11:23:40;7.40;99.90
13982;DHT22;7065;50.880;5.502;2023-04-03T11:26:18;7.50;99.90
13982;DHT22;7065;50.880;5.502;2023-04-03T11:28:44;7.70;99.90
13982;DHT22;7065;50.880;5.502;2023-04-03T11:36:53;7.70;99.90
13982;DHT22;7065;50.880;5.502;2023-04-03T11:39:34;7.90;99.90
13982;DHT22;7065;50.880;5.502;2023-04-03T11:42:34;7.90;99.90
13982;DHT22;7065;50.880;5.502;2023-04-03T11:45:36;7.90;99.90
13982;DHT22;7065;50.880;5.502;2023-04-03T11:50:47;8.10;99.90
13982;DHT22;7065;50.880;5.502;2023-04-03T11:55:46;8.30;99.90
13982;DHT22;7065;50.880;5.502;2023-04-03T11:58:22;8.30;99.90
13982;DHT22;7065;50.880;5.502;2023-04-03T12:00:51;8.30;99.90
13982;DHT22;7065;50.880;5.502;2023-04-03T12:05:55;8.40;99.90
13982;DHT22;7065;50.880;5.502;2023-04-03T12:08:36;8.40;99.90
13982;DHT22;7065;50.880;5.502;2023-04-03T12:13:37;8.70;99.90
13982;DHT22;7065;50.880;5.502;2023-04-03T12:16:05;8.70;99.90
13982;DHT22;7065;50.880;5.502;2023-04-03T12:29:46;8.80;99.90
13982;DHT22;7065;50.880;5.502;2023-04-03T12:40:43;8.80;99.90
13982;DHT22;7065;50.880;5.502;2023-04-03T12:48:56;8.90;99.90
13982;DHT22;7065;50.880;5.502;2023-04-03T12:54:01;9.10;99.90
13982;DHT22;7065;50.880;5.502;2023-04-03T12:56:30;9.10;99.90
13982;DHT22;7065;50.880;5.502;2023-04-03T13:01:57;9.20;99.90
13982;DHT22;7065;50.880;5.502;2023-04-03T13:04:24;9.20;99.90
13982;DHT22;7065;50.880;5.502;2023-04-03T13:06:50;9.30;99.90
13982;DHT22;7065;50.880;5.502;2023-04-03T13:09:25;9.20;99.90
13982;DHT22;7065;50.880;5.502;2023-04-03T13:12:18;9.30;99.90
13982;DHT22;7065;50.880;5.502;2023-04-03T13:14:56;9.40;99.90
13982;DHT22;7065;50.880;5.502;2023-04-03T13:17:23;9.40;99.90
13982;DHT22;7065;50.880;5.502;2023-04-03T13:19:50;9.50;99.90
13982;DHT22;7065;50.880;5.502;2023-04-03T13:22:24;9.60;99.90
13982;DHT22;7065;50.880;5.502;2023-04-03T13:24:51;9.70;99.90
13982;DHT22;7065;50.880;5.502;2023-04-03T13:27:19;9.70;99.90
13982;DHT22;7065;50.880;5.502;2023-04-03T13:29:50;9.70;99.90
13982;DHT22;7065;50.880;5.502;2023-04-03T13:32:20;9.80;99.90
13982;DHT22;7065;50.880;5.502;2023-04-03T13:34:47;9.70;99.90
13982;DHT22;7065;50.880;5.502;2023-04-03T13:37:28;9.90;99.90
13982;DHT22;7065;50.880;5.502;2023-04-03T13:42:35;10.00;99.90
13982;DHT22;7065;50.880;5.502;2023-04-03T13:45:28;10.10;99.90
13982;DHT22;7065;50.880;5.502;2023-04-03T13:48:17;10.00;99.90
13982;DHT22;7065;50.880;5.502;2023-04-03T13:51:01;9.90;99.90
13982;DHT22;7065;50.880;5.502;2023-04-03T13:53:29;9.80;99.90
13982;DHT22;7065;50.880;5.502;2023-04-03T13:58:31;10.00;99.90
13982;DHT22;7065;50.880;5.502;2023-04-03T14:03:56;10.10;99.90
13982;DHT22;7065;50.880;5.502;2023-04-03T14:06:23;10.10;99.90
13982;DHT22;7065;50.880;5.502;2023-04-03T14:08:49;10.00;99.90
13982;DHT22;7065;50.880;5.502;2023-04-03T14:11:20;10.10;99.90
13982;DHT22;7065;50.880;5.502;2023-04-03T14:13:47;10.10;99.90
13982;DHT22;7065;50.880;5.502;2023-04-03T14:16:20;10.20;99.90
13982;DHT22;7065;50.880;5.502;2023-04-03T14:18:48;10.10;99.90
13982;DHT22;7065;50.880;5.502;2023-04-03T14:21:16;10.20;99.90
13982;DHT22;7065;50.880;5.502;2023-04-03T14:23:43;10.30;99.90
13982;DHT22;7065;50.880;5.502;2023-04-03T14:26:17;10.20;99.90
13982;DHT22;7065;50.880;5.502;2023-04-03T14:28:45;10.20;99.90
13982;DHT22;7065;50.880;5.502;2023-04-03T14:31:12;10.30;99.90
13982;DHT22;7065;50.880;5.502;2023-04-03T14:33:39;10.40;99.90
13982;DHT22;7065;50.880;5.502;2023-04-03T14:36:12;10.40;99.90
13982;DHT22;7065;50.880;5.502;2023-04-03T14:38:38;10.60;99.90
13982;DHT22;7065;50.880;5.502;2023-04-03T14:41:04;10.50;99.90
13982;DHT22;7065;50.880;5.502;2023-04-03T14:43:30;10.30;99.90
13982;DHT22;7065;50.880;5.502;2023-04-03T14:45:56;10.40;99.90
13982;DHT22;7065;50.880;5.502;2023-04-03T14:48:24;10.30;99.90
13982;DHT22;7065;50.880;5.502;2023-04-03T14:50:52;10.40;99.90
13982;DHT22;7065;50.880;5.502;2023-04-03T14:53:18;10.40;99.90
13982;DHT22;7065;50.880;5.502;2023-04-03T14:55:48;10.40;99.90
13982;DHT22;7065;50.880;5.502;2023-04-03T14:58:17;10.50;99.90
13982;DHT22;7065;50.880;5.502;2023-04-03T15:00:43;10.50;99.90
13982;DHT22;7065;50.880;5.502;2023-04-03T15:03:18;10.40;99.90
13982;DHT22;7065;50.880;5.502;2023-04-03T15:05:45;10.40;99.90
13982;DHT22;7065;50.880;5.502;2023-04-03T15:08:20;10.40;99.90
13982;DHT22;7065;50.880;5.502;2023-04-03T15:10:47;10.40;99.90
13982;DHT22;7065;50.880;5.502;2023-04-03T15:13:13;10.40;99.90
13982;DHT22;7065;50.880;5.502;2023-04-03T15:15:39;10.40;99.90
13982;DHT22;7065;50.880;5.502;2023-04-03T15:18:05;10.50;99.90
13982;DHT22;7065;50.880;5.502;2023-04-03T15:20:31;10.60;99.90
13982;DHT22;7065;50.880;5.502;2023-04-03T15:23:00;10.70;99.90
13982;DHT22;7065;50.880;5.502;2023-04-03T15:25:29;10.60;99.70
13982;DHT22;7065;50.880;5.502;2023-04-03T15:27:56;10.60;99.90
13982;DHT22;7065;50.880;5.502;2023-04-03T15:30:22;10.80;99.90
13982;DHT22;7065;50.880;5.502;2023-04-03T15:32:49;10.60;99.90
13982;DHT22;7065;50.880;5.502;2023-04-03T15:35:15;10.50;99.90
13982;DHT22;7065;50.880;5.502;2023-04-03T15:37:40;10.40;98.80
13982;DHT22;7065;50.880;5.502;2023-04-03T15:40:07;10.40;98.60
13982;DHT22;7065;50.880;5.502;2023-04-03T15:42:33;10.50;99.90
13982;DHT22;7065;50.880;5.502;2023-04-03T15:45:00;10.60;99.00
13982;DHT22;7065;50.880;5.502;2023-04-03T15:47:26;10.70;99.30
13982;DHT22;7065;50.880;5.502;2023-04-03T15:49:53;10.60;99.30
13982;DHT22;7065;50.880;5.502;2023-04-03T15:52:19;10.60;99.50
13982;DHT22;7065;50.880;5.502;2023-04-03T15:54:45;10.60;99.90
13982;DHT22;7065;50.880;5.502;2023-04-03T15:57:11;10.30;98.40
13982;DHT22;7065;50.880;5.502;2023-04-03T15:59:37;10.30;98.70
13982;DHT22;7065;50.880;5.502;2023-04-03T16:02:05;10.20;98.50
13982;DHT22;7065;50.880;5.502;2023-04-03T16:04:32;10.20;98.50
13982;DHT22;7065;50.880;5.502;2023-04-03T16:07:01;10.00;97.50
13982;DHT22;7065;50.880;5.502;2023-04-03T16:09:27;9.90;97.90
13982;DHT22;7065;50.880;5.502;2023-04-03T16:11:53;9.80;97.20
13982;DHT22;7065;50.880;5.502;2023-04-03T16:14:19;9.80;98.60
13982;DHT22;7065;50.880;5.502;2023-04-03T16:16:44;9.80;98.30
13982;DHT22;7065;50.880;5.502;2023-04-03T16:19:10;9.90;99.90
13982;DHT22;7065;50.880;5.502;2023-04-03T16:21:36;10.20;99.80
13982;DHT22;7065;50.880;5.502;2023-04-03T16:24:03;10.10;98.10
13982;DHT22;7065;50.880;5.502;2023-04-03T16:26:29;10.10;98.70
13982;DHT22;7065;50.880;5.502;2023-04-03T16:28:55;10.30;98.00
13982;DHT22;7065;50.880;5.502;2023-04-03T16:31:21;10.20;97.10
13982;DHT22;7065;50.880;5.502;2023-04-03T16:33:48;10.20;96.30
13982;DHT22;7065;50.880;5.502;2023-04-03T16:36:13;10.20;96.50
13982;DHT22;7065;50.880;5.502;2023-04-03T16:38:39;10.30;97.10
13982;DHT22;7065;50.880;5.502;2023-04-03T16:41:05;10.00;96.50
13982;DHT22;7065;50.880;5.502;2023-04-03T16:43:31;9.80;97.30
13982;DHT22;7065;50.880;5.502;2023-04-03T16:45:58;9.60;97.30
13982;DHT22;7065;50.880;5.502;2023-04-03T16:48:24;9.40;96.80
13982;DHT22;7065;50.880;5.502;2023-04-03T16:50:50;9.20;97.40
13982;DHT22;7065;50.880;5.502;2023-04-03T16:53:22;9.10;97.40
13982;DHT22;7065;50.880;5.502;2023-04-03T16:55:49;9.10;97.80
13982;DHT22;7065;50.880;5.502;2023-04-03T16:58:15;9.00;98.40
13982;DHT22;7065;50.880;5.502;2023-04-03T17:00:42;9.00;98.40
13982;DHT22;7065;50.880;5.502;2023-04-03T17:03:07;9.10;99.30
13982;DHT22;7065;50.880;5.502;2023-04-03T17:05:33;9.10;99.30
13982;DHT22;7065;50.880;5.502;2023-04-03T17:07:59;9.10;98.70
13982;DHT22;7065;50.880;5.502;2023-04-03T17:10:26;9.10;98.60
13982;DHT22;7065;50.880;5.502;2023-04-03T17:12:52;9.00;98.80
13982;DHT22;7065;50.880;5.502;2023-04-03T17:15:19;8.90;99.10
13982;DHT22;7065;50.880;5.502;2023-04-03T17:17:46;8.70;99.40
13982;DHT22;7065;50.880;5.502;2023-04-03T17:20:12;8.60;99.30
13982;DHT22;7065;50.880;5.502;2023-04-03T17:22:38;8.70;99.90
13982;DHT22;7065;50.880;5.502;2023-04-03T17:25:04;8.70;99.40
13982;DHT22;7065;50.880;5.502;2023-04-03T17:27:30;8.60;99.90
13982;DHT22;7065;50.880;5.502;2023-04-03T17:29:56;8.70;99.90
13982;DHT22;7065;50.880;5.502;2023-04-03T17:32:21;8.80;99.60
13982;DHT22;7065;50.880;5.502;2023-04-03T17:34:48;8.90;98.90
13982;DHT22;7065;50.880;5.502;2023-04-03T17:37:14;9.20;99.00
13982;DHT22;7065;50.880;5.502;2023-04-03T17:39:39;9.40;98.50
13982;DHT22;7065;50.880;5.502;2023-04-03T17:42:05;9.30;98.30